ARG104 SUMU-SABE
Flight info
| Callsign | ARG104 |
|---|---|
| Flight time | 0h 28m |
| Altitude | 18000 |
| Route | DAGUS DCT UGIMI UGIMI8R |
| Aircraft | B38M/M-SDE1FGHILORVWXY/HB1 |
Departure
| Time | 2026-04-22 18:16 |
|---|---|
| Airport | Carrasco General Cesáreo L. Berisso International Airport (SUMU) |
Arrival
| Time | 2026-04-22 18:45 |
|---|---|
| Airport | Aeroparque Jorge Newbery (SABE) |
| Time | Latitude | Longitude | Altitude | Speed | Heading |
|---|---|---|---|---|---|
| 2026-04-22 17:05 | -34.83616 | -56.01805 | 84 ft | 0 kts | 144° |
| 2026-04-22 18:02 | -34.83612 | -56.01808 | 88 ft | 3 kts | 144° |
| 2026-04-22 18:03 | -34.83591 | -56.01828 | 86 ft | 4 kts | 144° |
| 2026-04-22 18:03 | -34.83572 | -56.01845 | 90 ft | 4 kts | 140° |
| 2026-04-22 18:03 | -34.83559 | -56.01868 | 87 ft | 4 kts | 86° |
| 2026-04-22 18:03 | -34.83569 | -56.01893 | 87 ft | 4 kts | 47° |
| 2026-04-22 18:04 | -34.83585 | -56.01914 | 89 ft | 1 kts | 53° |
| 2026-04-22 18:08 | -34.83582 | -56.01910 | 84 ft | 2 kts | 53° |
| 2026-04-22 18:09 | -34.83564 | -56.01880 | 88 ft | 7 kts | 53° |
| 2026-04-22 18:09 | -34.83530 | -56.01824 | 87 ft | 9 kts | 54° |
| 2026-04-22 18:09 | -34.83494 | -56.01770 | 86 ft | 6 kts | 37° |
| 2026-04-22 18:09 | -34.83453 | -56.01764 | 87 ft | 7 kts | 345° |
| 2026-04-22 18:10 | -34.83407 | -56.01800 | 86 ft | 9 kts | 324° |
| 2026-04-22 18:10 | -34.83347 | -56.01848 | 87 ft | 11 kts | 327° |
| 2026-04-22 18:10 | -34.83295 | -56.01853 | 85 ft | 5 kts | 30° |
| 2026-04-22 18:10 | -34.83272 | -56.01818 | 87 ft | 7 kts | 53° |
| 2026-04-22 18:11 | -34.83233 | -56.01751 | 88 ft | 12 kts | 53° |
| 2026-04-22 18:11 | -34.83179 | -56.01661 | 84 ft | 15 kts | 53° |
| 2026-04-22 18:11 | -34.83111 | -56.01552 | 87 ft | 18 kts | 51° |
| 2026-04-22 18:11 | -34.83043 | -56.01438 | 88 ft | 15 kts | 53° |
| 2026-04-22 18:12 | -34.82975 | -56.01325 | 84 ft | 18 kts | 53° |
| 2026-04-22 18:12 | -34.82898 | -56.01206 | 88 ft | 15 kts | 51° |
| 2026-04-22 18:12 | -34.82852 | -56.01148 | 88 ft | 6 kts | 31° |
| 2026-04-22 18:12 | -34.82786 | -56.01143 | 86 ft | 9 kts | 352° |
| 2026-04-22 18:13 | -34.82726 | -56.01168 | 87 ft | 9 kts | 314° |
| 2026-04-22 18:13 | -34.82702 | -56.01224 | 84 ft | 4 kts | 256° |
| 2026-04-22 18:13 | -34.82714 | -56.01239 | 84 ft | 3 kts | 224° |
| 2026-04-22 18:13 | -34.82729 | -56.01261 | 85 ft | 0 kts | 233° |
| 2026-04-22 18:15 | -34.82811 | -56.01397 | 84 ft | 50 kts | 233° |
| 2026-04-22 18:15 | -34.83144 | -56.01943 | 86 ft | 108 kts | 234° |
| 2026-04-22 18:16 | -34.83691 | -56.02829 | 191 ft | 145 kts | 236° |
| 2026-04-22 18:16 | -34.84328 | -56.03825 | 703 ft | 157 kts | 237° |
| 2026-04-22 18:16 | -34.85101 | -56.04778 | 1421 ft | 161 kts | 212° |
| 2026-04-22 18:16 | -34.86080 | -56.05502 | 2107 ft | 174 kts | 229° |
| 2026-04-22 18:17 | -34.86465 | -56.06911 | 2761 ft | 192 kts | 268° |
| 2026-04-22 18:17 | -34.86443 | -56.08606 | 3448 ft | 209 kts | 263° |
| 2026-04-22 18:17 | -34.86605 | -56.10443 | 4115 ft | 227 kts | 261° |
| 2026-04-22 18:17 | -34.86834 | -56.12420 | 4817 ft | 245 kts | 258° |
| 2026-04-22 18:18 | -34.87114 | -56.14533 | 5541 ft | 258 kts | 258° |
| 2026-04-22 18:18 | -34.87416 | -56.16664 | 6710 ft | 252 kts | 258° |
| 2026-04-22 18:18 | -34.87720 | -56.18749 | 7800 ft | 250 kts | 258° |
| 2026-04-22 18:18 | -34.88035 | -56.20854 | 8737 ft | 254 kts | 258° |
| 2026-04-22 18:19 | -34.88359 | -56.22988 | 9712 ft | 257 kts | 258° |
| 2026-04-22 18:19 | -34.88688 | -56.25143 | 10576 ft | 262 kts | 258° |
| 2026-04-22 18:19 | -34.89034 | -56.27390 | 11188 ft | 278 kts | 259° |
| 2026-04-22 18:19 | -34.89397 | -56.29738 | 11773 ft | 293 kts | 259° |
| 2026-04-22 18:20 | -34.89783 | -56.32244 | 12573 ft | 299 kts | 260° |
| 2026-04-22 18:20 | -34.90161 | -56.34699 | 13583 ft | 299 kts | 261° |
| 2026-04-22 18:20 | -34.90547 | -56.37218 | 14427 ft | 304 kts | 261° |
| 2026-04-22 18:20 | -34.90938 | -56.39768 | 15303 ft | 308 kts | 262° |
| 2026-04-22 18:21 | -34.91332 | -56.42342 | 16184 ft | 311 kts | 262° |
| 2026-04-22 18:21 | -34.91730 | -56.44947 | 17003 ft | 315 kts | 262° |
| 2026-04-22 18:21 | -34.92134 | -56.47595 | 17814 ft | 320 kts | 263° |
| 2026-04-22 18:21 | -34.92544 | -56.50286 | 18045 ft | 324 kts | 263° |
| 2026-04-22 18:22 | -34.92955 | -56.52983 | 18063 ft | 324 kts | 263° |
| 2026-04-22 18:22 | -34.93366 | -56.55689 | 18071 ft | 324 kts | 263° |
| 2026-04-22 18:22 | -34.93776 | -56.58391 | 18078 ft | 324 kts | 263° |
| 2026-04-22 18:22 | -34.94185 | -56.61091 | 18085 ft | 324 kts | 263° |
| 2026-04-22 18:23 | -34.94593 | -56.63795 | 18086 ft | 324 kts | 263° |
| 2026-04-22 18:23 | -34.94999 | -56.66491 | 18090 ft | 324 kts | 263° |
| 2026-04-22 18:23 | -34.95197 | -56.69207 | 18092 ft | 320 kts | 273° |
| 2026-04-22 18:24 | -34.95241 | -56.74624 | 18094 ft | 321 kts | 271° |
| 2026-04-22 18:24 | -34.95293 | -56.77345 | 18092 ft | 321 kts | 271° |
| 2026-04-22 18:24 | -34.95416 | -56.82780 | 18092 ft | 321 kts | 270° |
| 2026-04-22 18:25 | -34.95481 | -56.85501 | 18094 ft | 321 kts | 271° |
| 2026-04-22 18:25 | -34.95547 | -56.88223 | 18091 ft | 321 kts | 271° |
| 2026-04-22 18:25 | -34.95612 | -56.90938 | 18095 ft | 321 kts | 270° |
| 2026-04-22 18:26 | -34.95732 | -56.96376 | 18097 ft | 320 kts | 273° |
| 2026-04-22 18:26 | -34.95426 | -56.99043 | 18093 ft | 318 kts | 285° |
| 2026-04-22 18:26 | -34.94845 | -57.01641 | 18089 ft | 318 kts | 285° |
| 2026-04-22 18:26 | -34.94282 | -57.04253 | 18091 ft | 318 kts | 285° |
| 2026-04-22 18:27 | -34.93727 | -57.06866 | 18098 ft | 318 kts | 284° |
| 2026-04-22 18:27 | -34.93177 | -57.09477 | 18091 ft | 318 kts | 284° |
| 2026-04-22 18:27 | -34.92628 | -57.12087 | 18098 ft | 318 kts | 284° |
| 2026-04-22 18:27 | -34.92078 | -57.14704 | 18090 ft | 318 kts | 284° |
| 2026-04-22 18:28 | -34.91536 | -57.17284 | 18091 ft | 318 kts | 285° |
| 2026-04-22 18:28 | -34.90980 | -57.19929 | 18095 ft | 318 kts | 285° |
| 2026-04-22 18:28 | -34.90444 | -57.22476 | 18051 ft | 309 kts | 284° |
| 2026-04-22 18:28 | -34.89921 | -57.24955 | 17956 ft | 295 kts | 285° |
| 2026-04-22 18:29 | -34.89418 | -57.27338 | 17715 ft | 286 kts | 284° |
| 2026-04-22 18:29 | -34.88926 | -57.29666 | 17368 ft | 281 kts | 284° |
| 2026-04-22 18:29 | -34.88442 | -57.31958 | 16968 ft | 278 kts | 284° |
| 2026-04-22 18:29 | -34.87962 | -57.34223 | 16580 ft | 275 kts | 284° |
| 2026-04-22 18:30 | -34.87488 | -57.36462 | 16200 ft | 272 kts | 284° |
| 2026-04-22 18:30 | -34.86545 | -57.40908 | 15422 ft | 272 kts | 284° |
| 2026-04-22 18:30 | -34.86069 | -57.43153 | 15028 ft | 274 kts | 284° |
| 2026-04-22 18:31 | -34.85591 | -57.45401 | 14642 ft | 275 kts | 283° |
| 2026-04-22 18:31 | -34.85118 | -57.47627 | 14252 ft | 274 kts | 283° |
| 2026-04-22 18:31 | -34.84641 | -57.49867 | 13869 ft | 272 kts | 283° |
| 2026-04-22 18:31 | -34.84167 | -57.52092 | 13435 ft | 270 kts | 283° |
| 2026-04-22 18:32 | -34.83696 | -57.54299 | 13029 ft | 268 kts | 282° |
| 2026-04-22 18:32 | -34.83229 | -57.56483 | 12637 ft | 265 kts | 282° |
| 2026-04-22 18:32 | -34.82768 | -57.58642 | 12263 ft | 263 kts | 282° |
| 2026-04-22 18:32 | -34.82304 | -57.60808 | 11887 ft | 266 kts | 282° |
| 2026-04-22 18:33 | -34.81836 | -57.62997 | 11502 ft | 269 kts | 281° |
| 2026-04-22 18:33 | -34.81362 | -57.65209 | 11125 ft | 271 kts | 281° |
| 2026-04-22 18:33 | -34.80886 | -57.67425 | 10751 ft | 271 kts | 281° |
| 2026-04-22 18:33 | -34.80411 | -57.69637 | 10423 ft | 269 kts | 280° |
| 2026-04-22 18:34 | -34.79946 | -57.71797 | 10261 ft | 259 kts | 279° |
| 2026-04-22 18:34 | -34.79494 | -57.73895 | 9990 ft | 255 kts | 279° |
| 2026-04-22 18:34 | -34.79045 | -57.75977 | 9593 ft | 254 kts | 279° |
| 2026-04-22 18:34 | -34.78597 | -57.78053 | 9216 ft | 253 kts | 279° |
| 2026-04-22 18:35 | -34.78158 | -57.80086 | 8869 ft | 251 kts | 279° |
| 2026-04-22 18:35 | -34.77718 | -57.82129 | 8518 ft | 249 kts | 279° |
| 2026-04-22 18:35 | -34.77278 | -57.84162 | 8185 ft | 248 kts | 279° |
| 2026-04-22 18:35 | -34.76836 | -57.86204 | 7843 ft | 253 kts | 279° |
| 2026-04-22 18:36 | -34.76386 | -57.88285 | 7491 ft | 255 kts | 279° |
| 2026-04-22 18:36 | -34.75935 | -57.90366 | 7137 ft | 254 kts | 279° |
| 2026-04-22 18:36 | -34.75484 | -57.92444 | 6807 ft | 253 kts | 279° |
| 2026-04-22 18:36 | -34.75036 | -57.94510 | 6458 ft | 252 kts | 279° |
| 2026-04-22 18:37 | -34.74589 | -57.96565 | 6094 ft | 251 kts | 280° |
| 2026-04-22 18:37 | -34.74145 | -57.98605 | 5744 ft | 249 kts | 280° |
| 2026-04-22 18:37 | -34.73851 | -57.99955 | 5521 ft | 248 kts | 280° |
| 2026-04-22 18:37 | -34.73261 | -58.02664 | 5070 ft | 248 kts | 281° |
| 2026-04-22 18:38 | -34.72816 | -58.04703 | 4723 ft | 251 kts | 281° |
| 2026-04-22 18:38 | -34.72368 | -58.06753 | 4374 ft | 251 kts | 282° |
| 2026-04-22 18:38 | -34.72118 | -58.07902 | 4226 ft | 249 kts | 282° |
| 2026-04-22 18:39 | -34.71264 | -58.11807 | 3945 ft | 230 kts | 282° |
| 2026-04-22 18:39 | -34.70861 | -58.13649 | 3806 ft | 221 kts | 282° |
| 2026-04-22 18:39 | -34.70400 | -58.15399 | 3630 ft | 216 kts | 296° |
| 2026-04-22 18:39 | -34.69512 | -58.16854 | 3446 ft | 211 kts | 304° |
| 2026-04-22 18:40 | -34.68655 | -58.18265 | 3275 ft | 205 kts | 302° |
| 2026-04-22 18:40 | -34.67848 | -58.19695 | 3105 ft | 207 kts | 301° |
| 2026-04-22 18:40 | -34.67040 | -58.21168 | 2792 ft | 212 kts | 301° |
| 2026-04-22 18:40 | -34.66231 | -58.22658 | 2564 ft | 207 kts | 300° |
| 2026-04-22 18:41 | -34.65466 | -58.24066 | 2515 ft | 191 kts | 300° |
| 2026-04-22 18:41 | -34.64752 | -58.25387 | 2390 ft | 185 kts | 300° |
| 2026-04-22 18:41 | -34.64050 | -58.26681 | 2237 ft | 186 kts | 301° |
| 2026-04-22 18:41 | -34.63344 | -58.27983 | 2097 ft | 183 kts | 300° |
| 2026-04-22 18:42 | -34.62661 | -58.29240 | 1979 ft | 172 kts | 300° |
| 2026-04-22 18:42 | -34.62029 | -58.30400 | 1864 ft | 154 kts | 300° |
| 2026-04-22 18:42 | -34.61461 | -58.31442 | 1751 ft | 146 kts | 299° |
| 2026-04-22 18:42 | -34.60905 | -58.32471 | 1589 ft | 145 kts | 296° |
| 2026-04-22 18:43 | -34.60351 | -58.33497 | 1418 ft | 146 kts | 300° |
| 2026-04-22 18:43 | -34.59789 | -58.34522 | 1233 ft | 145 kts | 300° |
| 2026-04-22 18:43 | -34.59232 | -58.35540 | 1035 ft | 144 kts | 300° |
| 2026-04-22 18:43 | -34.58682 | -58.36546 | 866 ft | 142 kts | 301° |
| 2026-04-22 18:44 | -34.58148 | -58.37533 | 638 ft | 137 kts | 301° |
| 2026-04-22 18:44 | -34.57593 | -58.38510 | 453 ft | 142 kts | 298° |
| 2026-04-22 18:44 | -34.57102 | -58.39529 | 253 ft | 142 kts | 298° |
| 2026-04-22 18:44 | -34.56505 | -58.40519 | 100 ft | 143 kts | 301° |
| 2026-04-22 18:45 | -34.56009 | -58.41440 | 27 ft | 93 kts | 304° |
| 2026-04-22 18:45 | -34.55812 | -58.41796 | 27 ft | 42 kts | 303° |
| 2026-04-22 18:45 | -34.55708 | -58.41918 | 27 ft | 5 kts | 15° |
| 2026-04-22 18:45 | -34.55693 | -58.41907 | 28 ft | 2 kts | 34° |
| 2026-04-22 18:46 | -34.55685 | -58.41901 | 28 ft | 3 kts | 34° |
| 2026-04-22 18:46 | -34.55683 | -58.41899 | 28 ft | 0 kts | 34° |
| 2026-04-22 18:47 | -34.55678 | -58.41888 | 28 ft | 3 kts | 76° |
| 2026-04-22 18:47 | -34.55679 | -58.41870 | 28 ft | 3 kts | 98° |
| 2026-04-22 18:47 | -34.55691 | -58.41838 | 28 ft | 7 kts | 121° |
| 2026-04-22 18:47 | -34.55724 | -58.41780 | 28 ft | 9 kts | 124° |
| 2026-04-22 18:48 | -34.55756 | -58.41705 | 28 ft | 11 kts | 115° |
| 2026-04-22 18:48 | -34.55793 | -58.41614 | 28 ft | 11 kts | 115° |
| 2026-04-22 18:48 | -34.55830 | -58.41522 | 28 ft | 12 kts | 118° |
| 2026-04-22 18:48 | -34.55872 | -58.41428 | 28 ft | 12 kts | 118° |
| 2026-04-22 18:49 | -34.55889 | -58.41390 | 28 ft | 2 kts | 116° |
| 2026-04-22 18:49 | -34.55900 | -58.41361 | 28 ft | 6 kts | 116° |
| 2026-04-22 18:49 | -34.55909 | -58.41313 | 28 ft | 4 kts | 73° |
| 2026-04-22 18:49 | -34.55899 | -58.41302 | 28 ft | 3 kts | 35° |
| 2026-04-22 18:50 | -34.55886 | -58.41293 | 28 ft | 1 kts | 27° |
| 2026-04-22 18:50 | -34.55867 | -58.41284 | 28 ft | 4 kts | 15° |
| 2026-04-22 18:50 | -34.55834 | -58.41293 | 28 ft | 6 kts | 320° |
| 2026-04-22 18:50 | -34.55808 | -58.41340 | 28 ft | 8 kts | 301° |
| 2026-04-22 18:51 | -34.55782 | -58.41386 | 28 ft | 3 kts | 315° |
| 2026-04-22 18:51 | -34.55772 | -58.41387 | 28 ft | 2 kts | 4° |
| 2026-04-22 18:51 | -34.55755 | -58.41378 | 28 ft | 2 kts | 29° |
| 2026-04-22 18:51 | -34.55745 | -58.41371 | 28 ft | 2 kts | 32° |
| 2026-04-22 18:52 | -34.55740 | -58.41367 | 28 ft | 0 kts | 33° |